createdAt,value
2018-06-02T00:02:18.233Z,92.20
2018-06-02T00:04:45.749Z,147.40
2018-06-02T00:07:13.225Z,162.23
2018-06-02T00:09:40.706Z,124.90
2018-06-02T00:12:08.197Z,108.40
2018-06-02T00:14:35.674Z,162.27
2018-06-02T00:17:03.161Z,158.37
2018-06-02T00:19:30.637Z,124.20
2018-06-02T00:21:58.105Z,120.77
2018-06-02T00:24:26.363Z,157.30
2018-06-02T00:26:54.617Z,142.30
2018-06-02T00:29:22.149Z,149.43
2018-06-02T00:31:49.628Z,149.13
2018-06-02T00:34:17.124Z,128.47
2018-06-02T00:36:45.362Z,178.43
2018-06-02T00:39:12.836Z,203.40
2018-06-02T00:41:40.325Z,128.13
2018-06-02T00:44:08.565Z,174.40
2018-06-02T00:46:36.057Z,169.23
2018-06-02T00:49:03.537Z,175.47
2018-06-02T00:51:31.013Z,187.83
2018-06-02T00:53:58.506Z,167.87
2018-06-02T00:56:26.753Z,170.67
2018-06-02T00:58:54.269Z,163.43
2018-06-02T01:01:21.745Z,135.03
2018-06-02T01:03:49.797Z,146.67
2018-06-02T01:06:17.564Z,156.30
2018-06-02T01:08:45.037Z,156.27
2018-06-02T01:11:13.125Z,167.37
2018-06-02T01:13:40.620Z,158.83
2018-06-02T01:16:08.101Z,179.60
2018-06-02T01:18:35.573Z,186.63
2018-06-02T01:21:03.066Z,162.60
2018-06-02T01:23:30.541Z,150.47
2018-06-02T01:25:58.074Z,186.80
2018-06-02T01:28:25.553Z,187.23
2018-06-02T01:30:53.789Z,162.67
2018-06-02T01:33:21.284Z,153.60
2018-06-02T01:35:49.522Z,171.53
2018-06-02T01:38:17.014Z,163.67
2018-06-02T01:40:45.252Z,168.97
2018-06-02T01:43:12.745Z,173.60
2018-06-02T01:45:40.221Z,175.23
2018-06-02T01:48:07.693Z,138.00
2018-06-02T01:50:35.185Z,170.43
2018-06-02T01:53:02.660Z,194.20
2018-06-02T01:55:30.924Z,197.93
2018-06-02T01:57:59.165Z,184.57
2018-06-02T02:00:26.645Z,198.53
2018-06-02T02:02:54.147Z,214.03
2018-06-02T02:05:21.623Z,192.87
2018-06-02T02:07:49.120Z,188.20
2018-06-02T02:10:17.371Z,161.97
2018-06-02T02:12:44.845Z,198.03
2018-06-02T02:15:12.336Z,149.53
2018-06-02T02:17:39.810Z,166.73
2018-06-02T02:20:07.301Z,185.03
2018-06-02T02:22:34.782Z,142.83
2018-06-02T02:25:03.022Z,158.83
2018-06-02T02:27:30.522Z,197.97
2018-06-02T02:29:58.757Z,165.93
2018-06-02T02:32:26.253Z,177.93
2018-06-02T02:34:53.742Z,197.20
2018-06-02T02:37:21.214Z,178.37
2018-06-02T02:39:48.713Z,195.87
2018-06-02T02:42:16.949Z,156.50
2018-06-02T02:44:44.451Z,155.50
2018-06-02T02:47:12.694Z,191.10
2018-06-02T02:49:40.169Z,209.57
2018-06-02T02:52:08.421Z,171.20
2018-06-02T02:54:35.900Z,189.17
2018-06-02T02:57:04.166Z,214.27
2018-06-02T02:59:31.641Z,208.97
2018-06-02T03:01:59.883Z,171.70
2018-06-02T03:04:27.373Z,203.30
2018-06-02T03:06:55.613Z,221.13
2018-06-02T03:09:23.119Z,230.87
2018-06-02T03:11:50.591Z,220.33
2018-06-02T03:14:18.077Z,220.70
2018-06-02T03:16:45.580Z,231.23
2018-06-02T03:19:13.058Z,217.53
2018-06-02T03:21:40.549Z,203.87
2018-06-02T03:24:08.021Z,221.53
2018-06-02T03:26:36.265Z,170.63
2018-06-02T03:29:03.756Z,206.50
2018-06-02T03:31:31.997Z,225.00
2018-06-02T03:33:59.515Z,220.37
2018-06-02T03:36:26.993Z,235.33
2018-06-02T03:38:54.481Z,262.07
2018-06-02T03:41:21.971Z,243.53
2018-06-02T03:43:49.443Z,255.73
2018-06-02T03:46:16.937Z,247.47
2018-06-02T03:48:44.409Z,249.90
2018-06-02T03:51:11.880Z,242.03
2018-06-02T03:53:40.141Z,255.33
2018-06-02T03:56:07.612Z,234.77
2018-06-02T03:58:35.873Z,246.27
2018-06-02T04:01:03.348Z,267.37
2018-06-02T04:03:31.584Z,263.87
2018-06-02T04:05:59.077Z,225.83
2018-06-02T04:08:27.317Z,217.33
2018-06-02T04:10:54.805Z,234.13
2018-06-02T04:13:23.045Z,251.00
2018-06-02T04:15:50.561Z,262.70
2018-06-02T04:18:18.789Z,250.77
2018-06-02T04:20:46.270Z,261.27
2018-06-02T04:23:14.525Z,276.60
2018-06-02T04:25:41.998Z,259.97
2018-06-02T04:28:10.237Z,266.17
2018-06-02T04:30:37.724Z,238.20
2018-06-02T04:33:05.961Z,250.20
2018-06-02T04:35:33.460Z,254.63
2018-06-02T04:38:01.709Z,259.40
2018-06-02T04:40:29.185Z,277.53
2018-06-02T04:42:57.444Z,221.60
2018-06-02T04:45:24.925Z,250.60
2018-06-02T04:47:52.442Z,231.57
2018-06-02T04:50:19.913Z,226.93
2018-06-02T04:52:48.168Z,251.33
2018-06-02T04:55:15.685Z,249.73
2018-06-02T04:57:43.185Z,241.50
2018-06-02T05:00:10.682Z,245.40
2018-06-02T05:02:38.157Z,283.80
2018-06-02T05:05:05.637Z,263.77
2018-06-02T05:07:33.129Z,300.97
2018-06-02T05:10:01.371Z,232.73
2018-06-02T05:12:28.865Z,235.73
2018-06-02T05:14:57.113Z,185.53
2018-06-02T05:17:26.095Z,156.97
2018-06-02T05:19:53.589Z,187.03
2018-06-02T05:22:21.829Z,179.40
2018-06-02T05:24:49.334Z,188.53
2018-06-02T05:27:16.808Z,182.90
2018-06-02T05:29:44.285Z,186.50
2018-06-02T05:32:11.773Z,191.67
2018-06-02T05:34:39.249Z,161.83
2018-06-02T05:37:07.506Z,161.70
2018-06-02T05:39:35.006Z,154.13
2018-06-02T05:42:02.481Z,141.63
2018-06-02T05:44:29.971Z,132.50
2018-06-02T05:46:57.449Z,114.43
2018-06-02T05:49:24.965Z,115.67
2018-06-02T05:51:52.438Z,118.40
2018-06-02T05:54:19.917Z,96.70
2018-06-02T05:56:48.174Z,76.83
2018-06-02T05:59:16.417Z,94.37
2018-06-02T06:01:43.901Z,86.80
2018-06-02T06:04:11.369Z,85.20
2018-06-02T06:06:39.632Z,68.57
2018-06-02T06:09:07.872Z,62.73
2018-06-02T06:11:35.356Z,74.20
2018-06-02T06:14:02.828Z,59.07
2018-06-02T06:16:31.093Z,54.80
2018-06-02T06:18:58.561Z,51.07
2018-06-02T06:21:26.796Z,54.97
2018-06-02T06:23:54.281Z,59.97
2018-06-02T06:26:22.521Z,46.53
2018-06-02T06:28:50.015Z,50.10
2018-06-02T06:31:18.258Z,53.07
2018-06-02T06:33:46.369Z,43.30
2018-06-02T06:36:14.609Z,56.23
2018-06-02T06:38:42.093Z,48.77
2018-06-02T06:41:10.337Z,46.00
2018-06-02T06:43:37.832Z,49.47
2018-06-02T06:46:06.071Z,49.27
2018-06-02T06:48:33.545Z,61.67
2018-06-02T06:51:01.805Z,40.97
2018-06-02T06:53:29.280Z,39.17
2018-06-02T06:55:57.525Z,43.40
2018-06-02T06:58:24.996Z,48.57
2018-06-02T07:00:53.442Z,45.83
2018-06-02T07:03:20.914Z,37.57
2018-06-02T07:05:48.413Z,44.23
2018-06-02T07:08:16.654Z,44.53
2018-06-02T07:10:44.129Z,41.70
2018-06-02T07:13:12.383Z,38.33
2018-06-02T07:15:39.911Z,31.17
2018-06-02T07:18:08.121Z,45.87
2018-06-02T07:20:35.590Z,37.43
2018-06-02T07:23:03.840Z,38.90
2018-06-02T07:25:32.213Z,28.77
2018-06-02T07:27:59.701Z,29.57
2018-06-02T07:30:27.936Z,30.30
2018-06-02T07:32:55.424Z,27.33
2018-06-02T07:35:23.661Z,27.73
2018-06-02T07:37:51.135Z,28.93
2018-06-02T07:40:18.627Z,22.00
2018-06-02T07:42:46.861Z,28.03
2018-06-02T07:45:14.375Z,26.73
2018-06-02T07:47:41.845Z,24.20
2018-06-02T07:50:09.351Z,27.80
2018-06-02T07:52:36.821Z,25.73
2018-06-02T07:55:05.073Z,30.80
2018-06-02T07:57:32.586Z,23.00
2018-06-02T08:00:00.045Z,25.13
2018-06-02T08:02:27.523Z,28.40
2018-06-02T08:04:55.077Z,21.73
2018-06-02T08:07:22.553Z,27.10
2018-06-02T08:09:50.055Z,26.50
2018-06-02T08:12:17.529Z,26.10
2018-06-02T08:14:45.077Z,24.40
2018-06-02T08:17:12.553Z,22.03
2018-06-02T08:19:40.789Z,25.03
2018-06-02T08:22:08.282Z,29.27
2018-06-02T08:24:35.753Z,21.97
2018-06-02T08:27:03.250Z,28.60
2018-06-02T08:29:30.734Z,23.07
2018-06-02T08:31:58.225Z,26.17
2018-06-02T08:34:25.701Z,21.67
2018-06-02T08:36:53.961Z,25.93
2018-06-02T08:39:21.438Z,26.23
2018-06-02T08:41:49.701Z,20.30
2018-06-02T08:44:17.941Z,19.07
2018-06-02T08:46:45.998Z,35.03
2018-06-02T08:49:13.473Z,20.10
2018-06-02T08:51:40.961Z,21.87
2018-06-02T08:54:09.199Z,12.27
2018-06-02T08:56:37.449Z,12.40
2018-06-02T08:59:04.917Z,11.10
2018-06-02T09:01:32.397Z,9.23
2018-06-02T09:03:59.867Z,9.70
2018-06-02T09:06:27.360Z,17.20
2018-06-02T09:08:54.838Z,14.33
2018-06-02T09:11:22.306Z,10.30
2018-06-02T09:13:49.790Z,10.53
2018-06-02T09:16:17.276Z,10.67
2018-06-02T09:18:44.765Z,12.23
2018-06-02T09:21:12.229Z,9.07
2018-06-02T09:23:39.743Z,14.10
2018-06-02T09:26:07.213Z,11.27
2018-06-02T09:28:34.707Z,19.37
2018-06-02T09:31:02.181Z,13.10
2018-06-02T09:33:29.657Z,9.53
2018-06-02T09:35:57.889Z,6.77
2018-06-02T09:38:25.376Z,9.47
2018-06-02T09:40:53.661Z,8.37
2018-06-02T09:43:21.921Z,7.30
2018-06-02T09:45:50.154Z,9.47
2018-06-02T09:48:17.618Z,6.47
2018-06-02T09:50:45.097Z,9.23
2018-06-02T09:53:12.573Z,8.30
2018-06-02T09:55:40.858Z,9.37
2018-06-02T09:58:08.332Z,9.03
2018-06-02T10:00:36.733Z,9.93
2018-06-02T10:03:04.213Z,11.13
2018-06-02T10:05:31.694Z,8.00
2018-06-02T10:07:59.937Z,18.20
2018-06-02T10:10:27.482Z,17.17
2018-06-02T10:12:54.911Z,11.30
2018-06-02T10:15:22.397Z,7.10
2018-06-02T10:17:49.866Z,8.47
2018-06-02T10:20:17.354Z,9.33
2018-06-02T10:22:45.593Z,7.50
2018-06-02T10:25:13.097Z,8.00
2018-06-02T10:27:40.569Z,5.27
2018-06-02T10:30:08.165Z,7.50
2018-06-02T10:32:35.808Z,5.53
2018-06-02T10:35:03.356Z,8.87
2018-06-02T10:37:31.734Z,10.40
2018-06-02T10:39:59.206Z,6.27
2018-06-02T10:42:26.696Z,35.67
2018-06-02T10:44:54.946Z,4.23
2018-06-02T10:47:22.434Z,9.57
2018-06-02T10:49:50.671Z,11.77
2018-06-02T10:52:18.158Z,10.37
2018-06-02T10:54:46.389Z,6.13
2018-06-02T10:57:13.873Z,6.57
2018-06-02T10:59:42.120Z,17.17
2018-06-02T11:02:09.605Z,7.07
2018-06-02T11:04:37.846Z,10.57
2018-06-02T11:07:05.337Z,12.77
2018-06-02T11:09:32.807Z,6.40
2018-06-02T11:12:01.041Z,6.83
2018-06-02T11:14:28.589Z,9.57
2018-06-02T11:16:56.057Z,6.90
2018-06-02T11:19:25.060Z,10.70
2018-06-02T11:21:52.537Z,10.13
2018-06-02T11:24:20.782Z,5.10
2018-06-02T11:26:48.253Z,5.50
2018-06-02T11:29:15.736Z,4.20
2018-06-02T11:31:43.207Z,6.50
2018-06-02T11:34:10.693Z,8.10
2018-06-02T11:36:38.161Z,20.30
2018-06-02T11:39:05.639Z,5.43
2018-06-02T11:41:33.881Z,4.73
2018-06-02T11:44:01.377Z,4.80
2018-06-02T11:46:29.616Z,5.60
2018-06-02T11:48:57.103Z,12.43
2018-06-02T11:51:25.339Z,5.10
2018-06-02T11:53:52.828Z,14.03
2018-06-02T11:56:21.070Z,10.83
2018-06-02T11:58:48.557Z,5.90
2018-06-02T12:01:16.795Z,7.00
2018-06-02T12:03:44.278Z,5.10
2018-06-02T12:06:11.744Z,8.00
2018-06-02T12:08:39.997Z,3.80
2018-06-02T12:11:07.461Z,5.17
2018-06-02T12:13:34.930Z,3.67
2018-06-02T12:16:03.186Z,3.33
2018-06-02T12:18:30.674Z,2.60
2018-06-02T12:20:58.169Z,4.33
2018-06-02T12:23:25.642Z,7.20
2018-06-02T12:25:53.146Z,4.77
2018-06-02T12:28:20.648Z,4.23
2018-06-02T12:30:48.117Z,5.40
2018-06-02T12:33:15.593Z,11.03
2018-06-02T12:35:43.073Z,2.63
2018-06-02T12:38:10.539Z,2.50
2018-06-02T12:40:38.034Z,6.60
2018-06-02T12:43:05.493Z,6.60
2018-06-02T12:45:32.974Z,3.20
2018-06-02T12:48:01.205Z,2.20
2018-06-02T12:50:28.701Z,5.47
2018-06-02T12:52:56.165Z,4.40
2018-06-02T12:55:24.397Z,6.80
2018-06-02T12:57:51.874Z,2.20
2018-06-02T13:00:19.338Z,2.50
2018-06-02T13:02:46.825Z,18.40
2018-06-02T13:05:14.306Z,4.37
2018-06-02T13:07:41.798Z,5.27
2018-06-02T13:10:09.264Z,5.43
2018-06-02T13:12:36.741Z,11.63
2018-06-02T13:15:05.265Z,1.83
2018-06-02T13:17:32.749Z,4.60
2018-06-02T13:20:00.209Z,3.50
2018-06-02T13:22:27.692Z,6.60
2018-06-02T13:24:55.918Z,7.53
2018-06-02T13:27:23.405Z,2.40
2018-06-02T13:29:51.638Z,6.67
2018-06-02T13:32:19.125Z,9.50
2018-06-02T13:34:46.594Z,2.03
2018-06-02T13:37:14.829Z,1.93
2018-06-02T13:39:42.313Z,7.83
2018-06-02T13:42:09.786Z,13.03
2018-06-02T13:44:38.033Z,2.63
2018-06-02T13:47:05.509Z,4.50
2018-06-02T13:49:33.757Z,8.43
2018-06-02T13:52:01.229Z,2.23
2018-06-02T13:54:28.708Z,3.60
2018-06-02T13:56:56.940Z,3.20
2018-06-02T13:59:24.423Z,6.17
2018-06-02T14:01:52.652Z,2.90
2018-06-02T14:04:20.140Z,3.17
2018-06-02T14:06:47.610Z,1.87
2018-06-02T14:09:15.857Z,8.83
2018-06-02T14:11:43.344Z,3.97
2018-06-02T14:14:11.601Z,2.43
2018-06-02T14:16:39.074Z,9.73
2018-06-02T14:19:07.325Z,7.33
2018-06-02T14:21:34.828Z,2.33
2018-06-02T14:24:02.293Z,2.03
2018-06-02T14:26:29.773Z,10.40
2018-06-02T14:28:57.249Z,2.80
2018-06-02T14:31:24.729Z,7.63
2018-06-02T14:33:52.968Z,4.20
2018-06-02T14:36:20.449Z,5.43
2018-06-02T14:38:48.681Z,7.00
2018-06-02T14:41:16.201Z,9.43
2018-06-02T14:43:43.680Z,1.50
2018-06-02T14:46:11.169Z,4.30
2018-06-02T14:48:38.644Z,2.13
2018-06-02T14:51:06.121Z,9.40
2018-06-02T14:53:33.585Z,1.73
2018-06-02T14:56:01.082Z,3.27
2018-06-02T14:58:28.549Z,3.50
2018-06-02T15:00:56.021Z,8.50
2018-06-02T15:03:24.277Z,19.67
2018-06-02T15:05:51.745Z,4.80
2018-06-02T15:08:19.225Z,1.87
2018-06-02T15:10:47.481Z,3.20
2018-06-02T15:13:15.737Z,4.83
2018-06-02T15:15:43.201Z,4.77
2018-06-02T15:18:10.685Z,2.33
2018-06-02T15:20:38.917Z,1.87
2018-06-02T15:23:06.398Z,6.67
2018-06-02T15:25:33.864Z,2.00
2018-06-02T15:28:02.110Z,2.83
2018-06-02T15:30:29.586Z,11.93
2018-06-02T15:32:57.836Z,2.63
2018-06-02T15:35:25.301Z,7.23
2018-06-02T15:37:53.693Z,2.63
2018-06-02T15:40:21.924Z,4.80
2018-06-02T15:42:49.420Z,4.30
2018-06-02T15:45:16.881Z,5.60
2018-06-02T15:47:45.115Z,2.60
2018-06-02T15:50:12.614Z,2.70
2018-06-02T15:52:40.851Z,5.20
2018-06-02T15:55:08.329Z,6.27
2018-06-02T15:57:35.792Z,3.60
2018-06-02T16:00:04.047Z,10.00
2018-06-02T16:02:31.511Z,3.73
2018-06-02T16:04:58.993Z,5.13
2018-06-02T16:07:26.468Z,2.60
2018-06-02T16:09:53.953Z,4.47
2018-06-02T16:12:21.425Z,4.77
2018-06-02T16:14:48.983Z,7.30
2018-06-02T16:17:16.448Z,4.20
2018-06-02T16:19:43.941Z,3.00
2018-06-02T16:22:11.409Z,5.00
2018-06-02T16:24:39.006Z,4.60
2018-06-02T16:27:06.489Z,5.70
2018-06-02T16:29:34.726Z,7.90
2018-06-02T16:32:02.213Z,3.83
2018-06-02T16:34:29.759Z,3.83
2018-06-02T16:36:57.246Z,7.13
2018-06-02T16:39:25.479Z,3.37
2018-06-02T16:41:52.961Z,4.50
2018-06-02T16:44:21.217Z,3.53
2018-06-02T16:46:48.712Z,9.23
2018-06-02T16:49:16.199Z,12.47
2018-06-02T16:51:43.681Z,6.40
2018-06-02T16:54:11.489Z,12.67
2018-06-02T16:56:38.982Z,13.03
2018-06-02T16:59:06.865Z,7.20
2018-06-02T17:01:34.348Z,7.27
2018-06-02T17:04:02.581Z,10.67
2018-06-02T17:06:30.220Z,4.00
2018-06-02T17:08:57.902Z,9.13
2018-06-02T17:11:25.373Z,6.40
2018-06-02T17:13:52.857Z,10.07
2018-06-02T17:16:21.177Z,6.50
2018-06-02T17:18:48.656Z,2.70
2018-06-02T17:21:16.121Z,3.20
2018-06-02T17:23:43.605Z,2.37
2018-06-02T17:26:11.884Z,5.83
2018-06-02T17:28:40.176Z,6.97
2018-06-02T17:31:07.666Z,3.27
2018-06-02T17:33:35.149Z,12.67
2018-06-02T17:36:02.648Z,2.73
2018-06-02T17:38:30.208Z,7.60
2018-06-02T17:40:57.765Z,17.13
2018-06-02T17:43:25.253Z,7.83
2018-06-02T17:45:52.721Z,3.53
2018-06-02T17:48:20.219Z,8.10
2018-06-02T17:50:47.707Z,12.13
2018-06-02T17:53:15.179Z,15.40
2018-06-02T17:55:42.665Z,10.50
2018-06-02T17:58:10.898Z,6.13
2018-06-02T18:00:38.378Z,9.43
2018-06-02T18:03:05.851Z,10.90
2018-06-02T18:05:34.105Z,4.40
2018-06-02T18:08:01.577Z,7.10
2018-06-02T18:10:29.951Z,7.40
2018-06-02T18:12:58.206Z,14.47
2018-06-02T18:15:25.689Z,2.53
2018-06-02T18:17:53.933Z,6.77
2018-06-02T18:20:21.425Z,7.90
2018-06-02T18:22:49.774Z,3.90
2018-06-02T18:25:17.265Z,2.77
2018-06-02T18:27:44.736Z,4.30
2018-06-02T18:30:12.201Z,7.47
2018-06-02T18:32:39.754Z,5.00
2018-06-02T18:35:07.225Z,5.67
2018-06-02T18:37:34.705Z,4.13
2018-06-02T18:40:02.173Z,5.57
2018-06-02T18:42:29.744Z,5.60
2018-06-02T18:44:57.234Z,6.20
2018-06-02T18:47:24.717Z,9.83
2018-06-02T18:49:52.226Z,9.93
2018-06-02T18:52:20.479Z,3.93
2018-06-02T18:54:48.735Z,5.63
2018-06-02T18:57:16.241Z,24.37
2018-06-02T18:59:43.714Z,4.57
2018-06-02T19:02:11.243Z,5.53
2018-06-02T19:04:38.725Z,4.63
2018-06-02T19:07:06.223Z,6.60
2018-06-02T19:09:33.736Z,8.87
2018-06-02T19:12:01.215Z,5.17
2018-06-02T19:14:28.705Z,11.67
2018-06-02T19:16:56.948Z,5.17
2018-06-02T19:19:24.479Z,12.73
2018-06-02T19:21:51.952Z,7.03
2018-06-02T19:24:19.434Z,4.70
2018-06-02T19:26:46.978Z,4.60
2018-06-02T19:29:14.557Z,7.23
2018-06-02T19:31:42.031Z,8.80
2018-06-02T19:34:10.311Z,5.03
2018-06-02T19:36:38.557Z,3.30
2018-06-02T19:39:06.063Z,4.60
2018-06-02T19:41:33.561Z,6.03
2018-06-02T19:44:01.071Z,4.17
2018-06-02T19:46:28.582Z,7.87
2018-06-02T19:48:56.121Z,5.60
2018-06-02T19:51:24.044Z,3.83
2018-06-02T19:53:51.521Z,6.67
2018-06-02T19:56:19.033Z,5.60
2018-06-02T19:58:47.281Z,5.07
2018-06-02T20:01:14.758Z,6.40
2018-06-02T20:04:10.049Z,10.90
2018-06-02T20:06:38.843Z,7.37
2018-06-02T20:09:07.065Z,14.53
2018-06-02T20:11:35.555Z,13.93
2018-06-02T20:14:03.985Z,13.10
2018-06-02T20:16:32.479Z,9.73
2018-06-02T20:19:00.927Z,11.87
2018-06-02T20:21:29.568Z,8.33
2018-06-02T20:23:58.151Z,6.43
2018-06-02T20:26:26.645Z,10.90
2018-06-02T20:28:55.087Z,10.60
2018-06-02T20:31:23.518Z,11.47
2018-06-02T20:33:51.929Z,15.67
2018-06-02T20:36:20.041Z,8.80
2018-06-02T20:38:48.465Z,9.47
2018-06-02T20:41:16.901Z,9.30
2018-06-02T20:43:45.991Z,13.13
2018-06-02T20:46:14.677Z,9.73
2018-06-02T20:48:43.606Z,7.43
2018-06-02T20:51:12.204Z,13.73
2018-06-02T20:53:41.073Z,13.23
2018-06-02T20:56:09.471Z,9.13
2018-06-02T20:58:38.209Z,11.13
2018-06-02T21:01:06.668Z,17.10
2018-06-02T21:03:35.109Z,10.03
2018-06-02T21:06:03.517Z,13.07
2018-06-02T21:08:31.969Z,18.37
2018-06-02T21:11:00.378Z,15.63
2018-06-02T21:13:28.827Z,6.67
2018-06-02T21:15:57.268Z,16.50
2018-06-02T21:18:25.957Z,12.93
2018-06-02T21:20:54.392Z,7.73
2018-06-02T21:23:22.821Z,9.83
2018-06-02T21:25:51.233Z,7.83
2018-06-02T21:28:19.332Z,11.10
2018-06-02T21:30:48.039Z,10.23
2018-06-02T21:33:16.505Z,15.33
2018-06-02T21:35:44.945Z,10.97
2018-06-02T21:38:13.378Z,8.37
2018-06-02T21:40:41.789Z,9.70
2018-06-02T21:43:10.163Z,14.37
2018-06-02T21:45:38.637Z,9.33
2018-06-02T21:48:07.070Z,15.40
2018-06-02T21:50:35.503Z,14.00
2018-06-02T21:53:03.937Z,11.53
2018-06-02T21:55:32.425Z,10.10
2018-06-02T21:58:01.114Z,19.70
2018-06-02T22:00:29.677Z,17.73
2018-06-02T22:02:58.154Z,8.50
2018-06-02T22:05:26.642Z,8.77
2018-06-02T22:07:55.062Z,8.83
2018-06-02T22:10:23.513Z,14.03
2018-06-02T22:12:52.037Z,9.70
2018-06-02T22:15:20.280Z,8.90
2018-06-02T22:17:48.707Z,7.93
2018-06-02T22:20:17.137Z,9.93
2018-06-02T22:22:45.541Z,13.63
2018-06-02T22:25:13.682Z,13.97
2018-06-02T22:27:42.281Z,9.03
2018-06-02T22:30:10.587Z,15.13
2018-06-02T22:32:39.185Z,14.00
2018-06-02T22:35:07.630Z,15.10
2018-06-02T22:37:36.054Z,10.53
2018-06-02T22:40:04.550Z,14.27
2018-06-02T22:42:32.993Z,14.43
2018-06-02T22:45:01.618Z,13.43
2018-06-02T22:47:30.217Z,10.97
2018-06-02T22:49:58.659Z,11.40
2018-06-02T22:52:27.174Z,16.33
2018-06-02T22:54:55.657Z,16.30
2018-06-02T22:57:23.869Z,12.80
2018-06-02T22:59:52.533Z,14.60
2018-06-02T23:02:21.345Z,13.53
2018-06-02T23:04:49.959Z,11.73
2018-06-02T23:07:18.541Z,15.83
2018-06-02T23:09:46.973Z,13.73
2018-06-02T23:12:15.417Z,10.33
2018-06-02T23:14:43.830Z,11.77
2018-06-02T23:17:12.523Z,12.80
2018-06-02T23:19:41.055Z,11.30
2018-06-02T23:22:24.401Z,10.83
2018-06-02T23:24:52.765Z,16.17
2018-06-02T23:27:21.327Z,16.40
2018-06-02T23:29:49.792Z,23.23
2018-06-02T23:32:18.244Z,13.80
2018-06-02T23:34:46.669Z,13.77
2018-06-02T23:37:15.139Z,17.57
2018-06-02T23:39:43.525Z,18.23
2018-06-02T23:42:11.929Z,15.63
2018-06-02T23:44:40.373Z,18.70
2018-06-02T23:47:08.777Z,14.13
2018-06-02T23:49:36.885Z,13.43
2018-06-02T23:52:05.333Z,15.90
2018-06-02T23:54:33.761Z,18.13
2018-06-02T23:57:02.205Z,17.03
2018-06-02T23:59:30.657Z,14.23
